Time;durP1;ratioP1;P1;durP2;ratioP2;P2;SDS_P1;SDS_P2;PMS_P1;PMS_P2;Temp;Humidity;BMP_temperature;BMP_pressure;BME280_temperature;BME280_humidity;BME280_pressure;Samples;Min_cycle;Max_cycle;Signal;HPM_P1;HPM_P2
2023/08/24 00:01:29;;;;;;;13.20;4.60;;;;;;;28.13;41.67;100515.60;108070;1277;21987;-73
2023/08/24 00:03:54;;;;;;;11.70;4.40;;;;;;;28.12;41.54;100516.63;108013;1289;21999;-57
2023/08/24 00:06:20;;;;;;;9.00;4.60;;;;;;;28.12;41.79;100519.45;108003;1289;22036;-73
2023/08/24 00:08:47;;;;;;;9.80;5.10;;;;;;;28.15;41.66;100521.52;107987;1289;21990;-57
2023/08/24 00:11:14;;;;;;;8.90;4.30;;;;;;;28.21;41.70;100521.41;107982;1283;21994;-73
2023/08/24 00:13:48;;;;;;;8.00;4.70;;;;;;;28.29;42.01;100523.08;108117;1289;22257;-73
2023/08/24 00:16:15;;;;;;;11.20;4.90;;;;;;;28.36;42.03;100525.18;108028;1282;22071;-57
2023/08/24 00:18:42;;;;;;;10.10;4.40;;;;;;;28.42;42.24;100521.64;108032;1289;21995;-58
2023/08/24 00:21:08;;;;;;;9.40;4.20;;;;;;;28.45;42.36;100520.81;107964;1289;22030;-65
2023/08/24 00:23:33;;;;;;;7.70;4.50;;;;;;;28.50;42.41;100523.34;107992;1279;21990;-74
2023/08/24 00:25:59;;;;;;;8.70;4.40;;;;;;;28.53;42.49;100523.45;107985;1289;22001;-73
2023/08/24 00:28:25;;;;;;;8.80;4.50;;;;;;;28.58;42.64;100524.55;108040;1284;21998;-73
2023/08/24 00:30:51;;;;;;;10.80;4.50;;;;;;;28.60;42.79;100524.27;108044;1289;22802;-57
2023/08/24 00:33:17;;;;;;;8.90;4.60;;;;;;;28.63;42.75;100524.52;108016;1283;21990;-58
2023/08/24 00:35:42;;;;;;;8.80;4.00;;;;;;;28.67;42.86;100523.11;108055;1284;21994;-57
2023/08/24 00:38:08;;;;;;;13.20;4.30;;;;;;;28.71;42.92;100523.86;108023;1289;22174;-57
2023/08/24 00:40:34;;;;;;;8.10;4.70;;;;;;;28.74;42.87;100521.23;107978;1289;22007;-57
2023/08/24 00:43:00;;;;;;;8.30;4.40;;;;;;;28.77;42.80;100524.58;108072;1289;21999;-58
2023/08/24 00:45:26;;;;;;;10.60;5.20;;;;;;;28.80;43.00;100517.16;108078;1282;23071;-74
2023/08/24 00:47:52;;;;;;;10.20;4.50;;;;;;;28.81;42.99;100513.98;107998;1289;23641;-74
2023/08/24 00:50:17;;;;;;;12.20;4.90;;;;;;;28.83;43.26;100516.84;107973;1288;22449;-57
2023/08/24 00:52:43;;;;;;;13.00;4.40;;;;;;;28.85;43.23;100509.36;108063;1284;22453;-58
2023/08/24 00:55:09;;;;;;;6.80;3.70;;;;;;;28.87;43.33;100512.16;107945;1289;21996;-61
2023/08/24 00:57:35;;;;;;;9.80;4.30;;;;;;;28.90;43.35;100511.75;108020;1284;21999;-74
2023/08/24 01:00:05;;;;;;;7.70;4.60;;;;;;;28.92;43.48;100510.50;107766;1289;153585;-57
2023/08/24 01:02:32;;;;;;;9.50;4.70;;;;;;;28.93;43.37;100511.09;107986;1289;23669;-74
2023/08/24 01:04:58;;;;;;;7.90;4.10;;;;;;;28.93;43.48;100508.21;108038;1277;23082;-74
2023/08/24 01:07:24;;;;;;;9.20;4.50;;;;;;;28.94;43.34;100504.20;108035;1289;21992;-57
2023/08/24 01:09:49;;;;;;;10.20;4.40;;;;;;;28.95;43.41;100505.34;107993;1288;22459;-57
2023/08/24 01:12:24;;;;;;;9.30;4.00;;;;;;;28.95;43.29;100504.66;108025;1289;22007;-60
2023/08/24 01:15:03;;;;;;;9.80;4.20;;;;;;;28.94;43.20;100501.12;108048;1286;21998;-74
2023/08/24 01:17:29;;;;;;;11.30;4.40;;;;;;;28.96;43.04;100500.52;108007;1289;22011;-57
2023/08/24 01:19:55;;;;;;;9.20;4.10;;;;;;;29.01;42.87;100501.27;107790;1289;21993;-74
2023/08/24 01:22:34;;;;;;;11.40;4.40;;;;;;;29.03;42.58;100500.14;107930;1289;22169;-57
2023/08/24 01:25:14;;;;;;;12.00;3.80;;;;;;;29.05;42.47;100495.59;108005;1280;21990;-74
2023/08/24 01:27:40;;;;;;;11.10;4.70;;;;;;;29.07;42.40;100494.16;107997;1289;21990;-74
2023/08/24 01:30:07;;;;;;;9.70;4.40;;;;;;;29.07;42.36;100491.14;108041;1288;21997;-57
2023/08/24 01:32:33;;;;;;;11.20;4.20;;;;;;;29.07;42.32;100492.01;108024;1289;22026;-74
2023/08/24 01:35:03;;;;;;;10.40;4.00;;;;;;;29.07;42.25;100489.46;108016;1285;21997;-57
2023/08/24 01:37:29;;;;;;;12.40;4.30;;;;;;;29.05;42.33;100484.58;108053;1289;21998;-57
2023/08/24 01:40:30;;;;;;;6.40;3.90;;;;;;;29.02;42.33;100484.73;108097;1289;21990;-58
2023/08/24 01:43:02;;;;;;;10.90;4.20;;;;;;;28.99;42.28;100484.09;107886;1289;21997;-57
2023/08/24 01:45:29;;;;;;;7.10;3.80;;;;;;;28.99;42.20;100479.22;108069;1289;24024;-74
2023/08/24 01:47:55;;;;;;;7.40;3.70;;;;;;;28.99;42.23;100477.38;107973;1283;21998;-57
2023/08/24 01:50:21;;;;;;;9.80;3.90;;;;;;;29.03;41.97;100471.27;107960;1290;22007;-58
2023/08/24 01:52:46;;;;;;;9.10;3.50;;;;;;;29.08;42.03;100468.27;107774;1287;21987;-74
2023/08/24 01:55:12;;;;;;;7.80;3.90;;;;;;;29.13;42.03;100469.66;107934;1289;21992;-57
2023/08/24 01:57:37;;;;;;;13.80;4.20;;;;;;;29.12;42.02;100469.37;107961;1290;22027;-57
2023/08/24 02:00:06;;;;;;;9.30;4.10;;;;;;;29.08;41.88;100472.04;107893;1281;22049;-57
2023/08/24 02:02:34;;;;;;;9.90;4.00;;;;;;;29.06;41.99;100472.84;107977;1281;22304;-73
2023/08/24 02:05:00;;;;;;;10.10;4.10;;;;;;;29.03;42.14;100473.38;107980;1288;21997;-74
2023/08/24 02:07:25;;;;;;;9.70;4.00;;;;;;;29.02;42.04;100475.52;108001;1290;23695;-74
2023/08/24 02:09:51;;;;;;;8.00;3.40;;;;;;;29.01;42.02;100476.11;107817;1290;21999;-57
2023/08/24 02:12:17;;;;;;;10.10;3.80;;;;;;;29.02;42.25;100478.54;107943;1283;22027;-72
2023/08/24 02:14:42;;;;;;;8.70;4.00;;;;;;;29.04;42.47;100475.98;108005;1283;21992;-74
2023/08/24 02:17:08;;;;;;;9.90;3.70;;;;;;;29.06;42.25;100474.36;107954;1287;22259;-57
2023/08/24 02:19:34;;;;;;;6.60;3.80;;;;;;;29.10;42.36;100477.46;107977;1290;21992;-74
2023/08/24 02:21:59;;;;;;;12.70;4.50;;;;;;;29.12;42.46;100479.64;107964;1287;21992;-72
2023/08/24 02:24:25;;;;;;;12.40;4.00;;;;;;;29.16;42.31;100480.41;107940;1290;21991;-57
2023/08/24 02:26:51;;;;;;;14.60;4.00;;;;;;;29.16;42.29;100484.92;107956;1283;22016;-72
2023/08/24 02:29:16;;;;;;;10.50;4.50;;;;;;;29.16;42.67;100486.17;107945;1284;22037;-73
2023/08/24 02:31:42;;;;;;;15.40;3.90;;;;;;;29.16;42.67;100488.52;107808;1285;22015;-62
2023/08/24 02:34:07;;;;;;;8.80;4.20;;;;;;;29.17;42.82;100488.23;107929;1284;21992;-57
2023/08/24 02:36:33;;;;;;;8.30;4.50;;;;;;;29.18;43.17;100490.11;108003;1284;23726;-57
2023/08/24 02:39:00;;;;;;;10.30;4.10;;;;;;;29.18;43.27;100493.97;107948;1284;21997;-58
2023/08/24 02:41:26;;;;;;;9.30;4.30;;;;;;;29.18;43.29;100494.99;107993;1287;21993;-73
2023/08/24 02:43:51;;;;;;;11.20;4.30;;;;;;;29.20;43.52;100499.14;108163;1284;21992;-73
2023/08/24 02:46:18;;;;;;;9.70;4.00;;;;;;;29.22;43.47;100497.92;108098;1283;23644;-57
2023/08/24 02:48:44;;;;;;;13.20;4.40;;;;;;;29.24;43.35;100498.45;108103;1287;21950;-57
2023/08/24 02:51:10;;;;;;;9.30;4.10;;;;;;;29.29;43.37;100495.83;108090;1287;22028;-74
2023/08/24 02:53:36;;;;;;;12.70;4.10;;;;;;;29.34;43.36;100494.33;108081;1281;21981;-73
2023/08/24 02:56:02;;;;;;;12.20;3.70;;;;;;;29.32;43.70;100493.23;108103;1287;21993;-58
2023/08/24 02:58:29;;;;;;;11.60;4.60;;;;;;;29.27;44.07;100487.51;108145;1283;21995;-73
2023/08/24 03:00:55;;;;;;;8.20;3.90;;;;;;;29.21;44.01;100485.16;108169;1281;22031;-57
2023/08/24 03:03:20;;;;;;;11.20;4.10;;;;;;;29.18;43.96;100486.55;108076;1286;21995;-58
2023/08/24 03:06:00;;;;;;;11.90;4.00;;;;;;;29.19;43.99;100494.60;108125;1286;22004;-73
2023/08/24 03:08:25;;;;;;;17.90;5.80;;;;;;;29.20;43.97;100496.08;108134;1287;21992;-57
2023/08/24 03:10:51;;;;;;;14.50;4.80;;;;;;;29.24;43.83;100500.30;108102;1287;21989;-57
2023/08/24 03:13:16;;;;;;;15.00;3.60;;;;;;;29.28;43.70;100499.08;108099;1284;21994;-72
2023/08/24 03:15:42;;;;;;;10.90;3.70;;;;;;;29.31;43.70;100502.90;108107;1284;23721;-58
2023/08/24 03:18:11;;;;;;;8.10;3.80;;;;;;;29.36;43.82;100506.08;108131;1281;21987;-57
2023/08/24 03:20:36;;;;;;;10.90;3.90;;;;;;;29.40;43.81;100507.92;108145;1287;22102;-74
2023/08/24 03:23:03;;;;;;;12.20;5.00;;;;;;;29.43;44.04;100506.42;108071;1287;21990;-74
2023/08/24 03:25:29;;;;;;;40.20;6.10;;;;;;;29.45;44.19;100507.66;108214;1287;21989;-76
2023/08/24 03:27:55;;;;;;;11.40;4.00;;;;;;;29.45;44.28;100506.95;108211;1283;22171;-59
2023/08/24 03:30:22;;;;;;;12.00;4.00;;;;;;;29.44;44.32;100505.90;108098;1287;21989;-76
2023/08/24 03:32:48;;;;;;;14.10;4.00;;;;;;;29.46;44.83;100507.39;108070;1284;21990;-76
2023/08/24 03:35:14;;;;;;;15.80;5.10;;;;;;;29.48;45.12;100507.58;108108;1280;21991;-76
2023/08/24 03:37:40;;;;;;;15.00;4.10;;;;;;;29.47;45.32;100508.19;108185;1287;23724;-72
2023/08/24 03:40:07;;;;;;;23.10;5.70;;;;;;;29.47;45.14;100505.29;108153;1287;21992;-57
2023/08/24 03:42:32;;;;;;;36.10;6.00;;;;;;;29.49;45.34;100502.20;108169;1282;21997;-75
2023/08/24 03:45:01;;;;;;;26.50;5.40;;;;;;;29.52;45.29;100502.66;108150;1287;23618;-74
2023/08/24 03:47:26;;;;;;;26.80;5.40;;;;;;;29.55;45.26;100505.33;108164;1280;21994;-58
2023/08/24 03:49:52;;;;;;;24.00;4.50;;;;;;;29.56;45.40;100509.72;108114;1287;22023;-74
2023/08/24 03:52:17;;;;;;;14.20;4.90;;;;;;;29.61;45.64;100510.69;108186;1287;21983;-76
2023/08/24 03:54:43;;;;;;;19.50;5.00;;;;;;;29.64;45.70;100509.75;108178;1278;23623;-75
2023/08/24 03:57:09;;;;;;;15.20;4.90;;;;;;;29.65;45.77;100513.27;108234;1287;21997;-58
2023/08/24 03:59:34;;;;;;;13.70;4.90;;;;;;;29.67;46.08;100514.73;108140;1286;21992;-76
2023/08/24 04:02:02;;;;;;;13.00;5.10;;;;;;;29.70;46.35;100511.73;108268;1287;22009;-75
2023/08/24 04:04:30;;;;;;;16.10;4.90;;;;;;;29.72;46.12;100511.20;108249;1281;21991;-59
2023/08/24 04:06:55;;;;;;;10.00;4.40;;;;;;;29.76;46.12;100507.60;108217;1287;22010;-59
2023/08/24 04:09:21;;;;;;;10.60;4.30;;;;;;;29.79;46.31;100504.92;108270;1283;23001;-57
2023/08/24 04:11:47;;;;;;;25.30;5.30;;;;;;;29.83;46.39;100507.27;108194;1284;21996;-60
2023/08/24 04:14:13;;;;;;;17.50;5.50;;;;;;;29.87;46.45;100509.46;108145;1284;21996;-75
2023/08/24 04:16:39;;;;;;;13.20;4.80;;;;;;;29.91;46.67;100512.17;108107;1281;21995;-59
2023/08/24 04:19:05;;;;;;;13.10;5.10;;;;;;;29.94;46.81;100505.23;108224;1287;21950;-82
2023/08/24 04:21:31;;;;;;;20.20;4.80;;;;;;;29.97;47.09;100506.92;108239;1287;21988;-75
2023/08/24 04:23:56;;;;;;;16.60;5.30;;;;;;;30.00;47.18;100508.31;108034;1287;23698;-59
2023/08/24 04:26:22;;;;;;;14.40;5.80;;;;;;;30.03;46.85;100509.10;108141;1283;21995;-75
2023/08/24 04:28:48;;;;;;;11.00;5.70;;;;;;;30.06;46.88;100508.07;108232;1284;21986;-77
2023/08/24 04:31:13;;;;;;;13.20;4.50;;;;;;;30.10;47.03;100507.87;108141;1281;21992;-58
2023/08/24 04:33:39;;;;;;;14.50;5.60;;;;;;;30.15;47.29;100508.16;108095;1283;21992;-78
2023/08/24 04:36:05;;;;;;;12.80;4.90;;;;;;;30.20;47.17;100507.93;108143;1287;21988;-57
2023/08/24 04:38:30;;;;;;;9.10;4.60;;;;;;;30.25;47.19;100508.15;108163;1281;21987;-58
2023/08/24 04:40:56;;;;;;;11.60;4.90;;;;;;;30.33;47.46;100507.60;108218;1287;21989;-76
2023/08/24 04:43:22;;;;;;;8.80;4.40;;;;;;;30.41;47.67;100503.98;108159;1283;22390;-76
2023/08/24 04:45:57;;;;;;;14.60;6.20;;;;;;;30.49;46.78;100508.63;108133;1286;21994;-76
2023/08/24 04:48:24;;;;;;;10.80;4.60;;;;;;;30.61;48.14;100509.00;108191;1287;21991;-57
2023/08/24 04:50:49;;;;;;;6.60;4.40;;;;;;;30.70;48.36;100512.13;108129;1287;21998;-57
2023/08/24 04:53:16;;;;;;;10.40;4.70;;;;;;;30.79;48.65;100517.96;108162;1282;21991;-76
2023/08/24 04:55:42;;;;;;;28.00;6.90;;;;;;;30.87;48.76;100518.86;108177;1285;22171;-80
2023/08/24 04:58:08;;;;;;;19.60;5.00;;;;;;;30.96;47.91;100517.76;108113;1286;21988;-57
2023/08/24 05:00:35;;;;;;;16.00;4.80;;;;;;;31.08;47.57;100520.06;108184;1277;21991;-77
2023/08/24 05:03:01;;;;;;;10.00;4.90;;;;;;;31.22;47.54;100518.02;108241;1287;22024;-58
2023/08/24 05:05:29;;;;;;;12.20;6.10;;;;;;;31.37;48.13;100512.42;108207;1283;21992;-57
2023/08/24 05:07:55;;;;;;;12.60;4.80;;;;;;;31.50;48.18;100514.04;108152;1278;22008;-57
2023/08/24 05:10:22;;;;;;;10.80;4.80;;;;;;;31.62;47.74;100510.23;108133;1287;22214;-76
2023/08/24 05:12:47;;;;;;;7.20;4.30;;;;;;;31.76;48.59;100507.33;108176;1286;22452;-58
2023/08/24 05:15:13;;;;;;;12.90;5.90;;;;;;;31.82;50.51;100503.45;108187;1278;21995;-81
2023/08/24 05:17:40;;;;;;;8.10;4.80;;;;;;;31.82;50.33;100501.05;108149;1277;24031;-75
2023/08/24 05:20:08;;;;;;;10.80;5.20;;;;;;;31.82;50.43;100503.80;108151;1281;23666;-76
2023/08/24 05:22:34;;;;;;;9.60;5.10;;;;;;;31.82;51.17;100501.85;108215;1287;21992;-77
2023/08/24 05:25:00;;;;;;;6.90;4.40;;;;;;;31.78;51.27;100505.89;108196;1283;21992;-75
2023/08/24 05:27:26;;;;;;;14.10;4.60;;;;;;;31.78;51.18;100508.17;108321;1276;21984;-58
2023/08/24 05:29:51;;;;;;;12.20;4.90;;;;;;;31.86;51.54;100507.22;108187;1276;21999;-76
2023/08/24 05:32:17;;;;;;;10.30;5.60;;;;;;;32.00;51.77;100506.55;108131;1284;23735;-58
2023/08/24 05:34:42;;;;;;;8.00;4.90;;;;;;;32.13;51.64;100507.23;108100;1283;21995;-58
2023/08/24 05:37:08;;;;;;;9.70;4.70;;;;;;;32.28;51.68;100504.92;108081;1287;21994;-78
2023/08/24 05:39:34;;;;;;;14.40;4.90;;;;;;;32.46;52.63;100500.99;108103;1287;21988;-76
2023/08/24 05:41:59;;;;;;;11.20;5.40;;;;;;;32.61;52.19;100498.70;108139;1277;21988;-59
2023/08/24 05:44:25;;;;;;;10.20;5.10;;;;;;;32.79;51.90;100500.14;108137;1284;21986;-77
2023/08/24 05:46:50;;;;;;;8.90;5.00;;;;;;;32.97;51.24;100501.52;108128;1287;21995;-58
2023/08/24 05:49:16;;;;;;;8.30;4.20;;;;;;;33.12;50.30;100500.15;108089;1285;22027;-77
2023/08/24 05:51:41;;;;;;;9.60;5.60;;;;;;;33.19;49.97;100502.27;108035;1281;23650;-75
2023/08/24 05:54:07;;;;;;;12.60;6.10;;;;;;;33.24;49.68;100500.75;108105;1286;21990;-58
2023/08/24 05:56:33;;;;;;;7.70;4.60;;;;;;;33.28;49.55;100502.06;108097;1281;22005;-58
2023/08/24 05:58:58;;;;;;;7.30;4.40;;;;;;;33.35;49.10;100504.95;107930;1279;22508;-58
2023/08/24 06:01:24;;;;;;;9.30;4.80;;;;;;;33.44;48.45;100502.01;108086;1284;21998;-76
2023/08/24 06:03:50;;;;;;;10.10;4.60;;;;;;;33.51;48.29;100500.96;108119;1287;21990;-58
2023/08/24 06:06:16;;;;;;;13.00;4.60;;;;;;;33.55;48.03;100503.27;108092;1280;22000;-58
2023/08/24 06:08:41;;;;;;;20.60;4.90;;;;;;;33.58;47.46;100506.15;108077;1278;21997;-58
2023/08/24 06:11:07;;;;;;;12.10;5.30;;;;;;;33.62;47.19;100508.97;108190;1284;22728;-58
2023/08/24 06:13:33;;;;;;;10.60;4.30;;;;;;;33.66;47.12;100511.84;108087;1280;21996;-75
2023/08/24 06:15:58;;;;;;;7.30;4.30;;;;;;;33.72;46.92;100508.72;108097;1286;22455;-75
2023/08/24 06:18:24;;;;;;;7.90;4.70;;;;;;;33.78;47.04;100508.52;108051;1283;21986;-58
2023/08/24 06:20:49;;;;;;;10.80;4.50;;;;;;;33.93;46.83;100508.21;108099;1283;21998;-76
2023/08/24 06:23:18;;;;;;;8.10;4.30;;;;;;;34.12;45.88;100507.45;108123;1284;21997;-77
2023/08/24 06:25:44;;;;;;;6.40;3.60;;;;;;;34.32;45.34;100504.73;108118;1283;21992;-76
2023/08/24 06:28:13;;;;;;;7.70;4.30;;;;;;;34.57;45.59;100505.02;108073;1284;21994;-77
2023/08/24 06:30:39;;;;;;;6.00;3.80;;;;;;;34.82;44.82;100502.39;108092;1286;21990;-75
2023/08/24 06:33:05;;;;;;;6.90;4.50;;;;;;;34.97;43.91;100499.84;108141;1283;21992;-75
2023/08/24 06:35:32;;;;;;;7.30;4.10;;;;;;;35.05;43.28;100501.88;108084;1283;22021;-77
2023/08/24 06:37:57;;;;;;;9.00;5.10;;;;;;;35.06;42.83;100503.34;107993;1286;21998;-76
2023/08/24 06:40:23;;;;;;;6.90;4.00;;;;;;;35.07;42.24;100504.40;108060;1283;24307;-77
2023/08/24 06:42:49;;;;;;;7.40;4.20;;;;;;;35.07;42.17;100501.34;108113;1287;21987;-75
2023/08/24 06:45:14;;;;;;;11.40;4.20;;;;;;;35.15;42.01;100499.96;108118;1286;21996;-77
2023/08/24 06:47:40;;;;;;;6.20;4.30;;;;;;;35.32;42.11;100500.58;108106;1278;21998;-75
2023/08/24 06:50:06;;;;;;;9.80;5.10;;;;;;;35.53;41.85;100504.35;108117;1281;21988;-76
2023/08/24 06:52:32;;;;;;;8.10;5.00;;;;;;;35.66;41.59;100506.17;108254;1287;22155;-76
2023/08/24 06:54:59;;;;;;;7.80;4.60;;;;;;;35.67;41.12;100504.35;108323;1278;22032;-76
2023/08/24 06:57:25;;;;;;;8.80;4.70;;;;;;;35.70;40.79;100506.20;108134;1284;21993;-76
2023/08/24 06:59:51;;;;;;;8.10;4.50;;;;;;;35.78;40.53;100511.89;108150;1287;22159;-76
2023/08/24 07:02:17;;;;;;;7.70;4.60;;;;;;;35.95;40.37;100510.20;108139;1281;23775;-74
2023/08/24 07:04:44;;;;;;;7.20;4.50;;;;;;;36.18;40.64;100508.40;108208;1281;22043;-75
2023/08/24 07:07:10;;;;;;;7.10;3.90;;;;;;;36.47;40.05;100509.52;108117;1283;21990;-74
2023/08/24 07:09:35;;;;;;;5.90;4.00;;;;;;;36.73;39.24;100508.02;108253;1277;23638;-75
2023/08/24 07:12:06;;;;;;;7.20;3.80;;;;;;;36.98;39.33;100507.99;108023;1287;22009;-74
2023/08/24 07:14:33;;;;;;;8.90;4.10;;;;;;;37.36;38.89;100510.27;108133;1282;23114;-74
2023/08/24 07:16:59;;;;;;;9.80;4.50;;;;;;;37.67;37.80;100510.60;108122;1284;22029;-72
2023/08/24 07:19:24;;;;;;;10.80;4.20;;;;;;;37.81;37.38;100509.19;108222;1284;21989;-75
2023/08/24 07:21:50;;;;;;;7.30;4.00;;;;;;;37.94;37.47;100511.82;108170;1287;21989;-73
2023/08/24 07:24:19;;;;;;;8.70;4.10;;;;;;;38.15;37.70;100509.11;108132;1287;21991;-74
2023/08/24 07:26:45;;;;;;;7.50;3.90;;;;;;;38.36;37.34;100508.58;108167;1286;21956;-74
2023/08/24 07:29:11;;;;;;;7.60;3.50;;;;;;;38.51;36.79;100508.36;108149;1284;22446;-75
2023/08/24 07:31:37;;;;;;;11.50;4.20;;;;;;;38.62;36.60;100510.60;108163;1281;22766;-75
2023/08/24 07:34:03;;;;;;;7.40;3.80;;;;;;;38.71;35.79;100513.35;108131;1283;22159;-73
2023/08/24 07:36:30;;;;;;;8.10;4.10;;;;;;;38.76;35.49;100514.91;108285;1283;21987;-73
2023/08/24 07:38:55;;;;;;;6.80;3.70;;;;;;;38.73;34.87;100515.65;108275;1286;23189;-72
2023/08/24 07:41:21;;;;;;;7.10;3.90;;;;;;;38.70;34.54;100514.95;108166;1281;21990;-58
2023/08/24 07:43:47;;;;;;;6.00;3.80;;;;;;;38.69;34.75;100514.30;108157;1287;21989;-58
2023/08/24 07:46:12;;;;;;;6.90;3.80;;;;;;;38.77;34.47;100510.09;108100;1282;21987;-73
2023/08/24 07:48:38;;;;;;;5.20;4.20;;;;;;;38.76;33.86;100504.77;108169;1281;21992;-58
2023/08/24 07:51:04;;;;;;;5.70;3.90;;;;;;;38.73;33.40;100505.34;108120;1287;22517;-58
2023/08/24 07:53:29;;;;;;;6.90;4.50;;;;;;;38.77;33.94;100504.30;108170;1281;21983;-59
2023/08/24 07:55:58;;;;;;;6.60;3.60;;;;;;;38.86;33.41;100499.96;108236;1276;22008;-74
2023/08/24 07:58:24;;;;;;;9.30;4.00;;;;;;;38.93;33.20;100499.92;108146;1287;21986;-59
2023/08/24 08:00:51;;;;;;;6.20;4.20;;;;;;;38.92;32.60;100496.92;108142;1281;22032;-73
2023/08/24 08:03:19;;;;;;;9.70;3.90;;;;;;;38.85;33.01;100495.38;108113;1286;22001;-75
2023/08/24 08:05:46;;;;;;;6.90;3.60;;;;;;;38.88;33.19;100494.30;108096;1284;22043;-59
2023/08/24 08:08:13;;;;;;;6.90;4.00;;;;;;;39.03;33.27;100490.16;108145;1284;21992;-75
2023/08/24 08:10:39;;;;;;;5.80;3.40;;;;;;;39.28;33.24;100488.48;108071;1284;21992;-60
2023/08/24 08:13:04;;;;;;;5.60;3.70;;;;;;;39.57;32.67;100483.41;108149;1277;21990;-76
2023/08/24 08:15:30;;;;;;;7.00;3.90;;;;;;;39.75;32.19;100481.21;108127;1283;21992;-76
2023/08/24 08:17:56;;;;;;;8.20;3.70;;;;;;;39.95;31.77;100479.94;108083;1281;23726;-59
2023/08/24 08:20:21;;;;;;;9.80;3.70;;;;;;;40.03;31.32;100483.76;108076;1280;22225;-59
2023/08/24 08:22:47;;;;;;;5.30;3.20;;;;;;;40.05;31.27;100480.88;108118;1277;21986;-75
2023/08/24 08:25:13;;;;;;;5.50;3.50;;;;;;;40.03;31.37;100477.44;108086;1281;21982;-59
2023/08/24 08:27:39;;;;;;;7.90;3.50;;;;;;;40.03;31.32;100475.57;108135;1287;21983;-59
2023/08/24 08:30:05;;;;;;;12.60;4.40;;;;;;;39.93;30.80;100474.81;108129;1277;22002;-61
2023/08/24 08:32:31;;;;;;;9.10;4.10;;;;;;;39.79;30.18;100477.45;108100;1277;21995;-60
2023/08/24 08:34:58;;;;;;;4.90;3.80;;;;;;;39.54;30.22;100475.62;108120;1287;22010;-76
2023/08/24 08:37:24;;;;;;;12.20;4.10;;;;;;;39.27;30.30;100479.75;108086;1288;23741;-76
2023/08/24 08:39:49;;;;;;;5.50;3.40;;;;;;;38.91;30.37;100482.98;108087;1284;21997;-75
2023/08/24 08:42:15;;;;;;;6.40;3.70;;;;;;;38.63;30.27;100480.86;108058;1276;23622;-59
2023/08/24 08:44:41;;;;;;;5.90;3.80;;;;;;;38.56;30.19;100474.55;108089;1281;21986;-76
2023/08/24 08:47:08;;;;;;;5.60;3.60;;;;;;;38.66;30.73;100475.11;108143;1281;23053;-76
2023/08/24 08:49:35;;;;;;;5.50;3.50;;;;;;;38.82;30.73;100470.19;108078;1283;22192;-75
2023/08/24 08:52:03;;;;;;;7.10;3.80;;;;;;;39.03;30.37;100470.44;108039;1283;21986;-60
2023/08/24 08:54:29;;;;;;;5.10;3.50;;;;;;;39.36;30.20;100469.96;108141;1281;21977;-59
2023/08/24 08:56:55;;;;;;;8.30;4.00;;;;;;;39.58;30.17;100470.16;108081;1287;21996;-73
2023/08/24 08:59:20;;;;;;;5.80;3.50;;;;;;;39.64;30.35;100467.02;108032;1287;22452;-59
2023/08/24 09:01:47;;;;;;;8.00;3.90;;;;;;;39.62;29.97;100467.37;107837;1283;21986;-59
2023/08/24 09:04:13;;;;;;;4.60;3.40;;;;;;;39.56;30.30;100471.14;107889;1287;21987;-75
2023/08/24 09:06:38;;;;;;;5.80;3.50;;;;;;;39.56;30.50;100469.14;108071;1286;23158;-74
2023/08/24 09:09:04;;;;;;;5.70;3.60;;;;;;;39.61;30.37;100465.59;108033;1285;21991;-59
2023/08/24 09:11:30;;;;;;;8.60;3.70;;;;;;;39.45;29.96;100458.48;108127;1287;21994;-75
2023/08/24 09:13:56;;;;;;;9.60;3.90;;;;;;;39.19;30.14;100461.21;108089;1276;22035;-59
2023/08/24 09:16:22;;;;;;;5.40;3.60;;;;;;;39.01;29.72;100461.13;108134;1277;22041;-73
2023/08/24 09:18:47;;;;;;;6.20;3.20;;;;;;;38.95;30.18;100458.71;107950;1284;23631;-76
2023/08/24 09:21:14;;;;;;;6.00;3.10;;;;;;;38.88;29.99;100455.13;108123;1286;21998;-75
2023/08/24 09:24:00;;;;;;;6.00;3.20;;;;;;;38.79;30.01;100452.02;108155;1284;21992;-72
2023/08/24 09:26:36;;;;;;;5.40;3.30;;;;;;;38.75;29.71;100450.56;108162;1287;21989;-72
2023/08/24 09:29:13;;;;;;;4.20;3.20;;;;;;;38.71;29.21;100449.21;108149;1284;23626;-72
2023/08/24 09:31:39;;;;;;;8.60;3.20;;;;;;;38.76;29.24;100445.73;108118;1287;21994;-59
2023/08/24 09:34:05;;;;;;;6.70;3.00;;;;;;;38.80;28.72;100446.60;108097;1287;21995;-73
2023/08/24 09:36:33;;;;;;;6.20;3.10;;;;;;;38.89;29.30;100441.71;108139;1278;21997;-74
2023/08/24 09:38:59;;;;;;;5.30;3.10;;;;;;;39.01;29.14;100436.83;108142;1284;21991;-73
2023/08/24 09:41:39;;;;;;;4.30;3.10;;;;;;;39.15;29.41;100436.23;108106;1281;23715;-60
2023/08/24 09:44:06;;;;;;;4.20;3.10;;;;;;;39.21;28.71;100434.64;108137;1287;21989;-71
2023/08/24 09:46:31;;;;;;;5.60;3.00;;;;;;;39.35;28.49;100428.18;108126;1287;23641;-71
2023/08/24 09:49:00;;;;;;;5.10;2.80;;;;;;;39.59;28.79;100424.91;108070;1281;22192;-57
2023/08/24 09:51:26;;;;;;;6.00;3.20;;;;;;;39.73;28.43;100423.92;108073;1287;22028;-71
2023/08/24 09:53:54;;;;;;;6.20;3.30;;;;;;;39.71;27.94;100424.89;108103;1287;22021;-58
2023/08/24 09:56:20;;;;;;;4.00;2.80;;;;;;;39.62;28.08;100425.86;108038;1281;21995;-58
2023/08/24 09:58:45;;;;;;;7.60;2.90;;;;;;;39.58;28.11;100429.15;108036;1287;21986;-58
2023/08/24 10:01:11;;;;;;;5.20;2.90;;;;;;;39.53;28.35;100426.22;108012;1283;21997;-58
2023/08/24 10:03:37;;;;;;;3.40;2.80;;;;;;;39.38;27.93;100427.42;107994;1287;22024;-58
2023/08/24 10:06:03;;;;;;;5.00;2.60;;;;;;;39.17;28.18;100424.34;108024;1286;21995;-58
2023/08/24 10:08:35;;;;;;;4.60;2.90;;;;;;;39.06;28.64;100416.35;108037;1286;22031;-58
2023/08/24 10:11:00;;;;;;;6.40;2.80;;;;;;;39.09;28.65;100411.70;107838;1287;22038;-59
2023/08/24 10:13:38;;;;;;;5.90;3.00;;;;;;;39.15;28.07;100406.51;108063;1287;22033;-71
2023/08/24 10:16:05;;;;;;;6.40;3.10;;;;;;;39.00;28.11;100404.27;108142;1282;22056;-59
2023/08/24 10:18:30;;;;;;;7.50;3.20;;;;;;;38.89;28.54;100399.52;108160;1283;21998;-72
2023/08/24 10:20:56;;;;;;;6.10;3.00;;;;;;;38.86;28.72;100402.85;108085;1284;21990;-58
2023/08/24 10:23:22;;;;;;;7.00;3.20;;;;;;;38.83;28.84;100405.70;107796;1288;21995;-59
2023/08/24 10:25:47;;;;;;;11.10;3.70;;;;;;;38.91;28.79;100405.71;107913;1287;22068;-72
2023/08/24 10:28:14;;;;;;;7.90;2.90;;;;;;;39.01;28.87;100404.32;108011;1284;22022;-59
2023/08/24 10:30:40;;;;;;;5.60;2.90;;;;;;;39.04;29.00;100407.77;108132;1284;21990;-72
2023/08/24 10:33:06;;;;;;;3.60;2.70;;;;;;;39.06;29.12;100400.95;108037;1287;21999;-59
2023/08/24 10:35:32;;;;;;;7.40;2.70;;;;;;;39.02;29.13;100404.95;108105;1284;22001;-73
2023/08/24 10:37:59;;;;;;;7.30;3.00;;;;;;;38.84;29.44;100404.27;108124;1287;22466;-59
2023/08/24 10:40:35;;;;;;;5.30;3.40;;;;;;;38.67;29.57;100404.39;108126;1277;21991;-59
2023/08/24 10:43:07;;;;;;;6.00;3.70;;;;;;;38.48;30.03;100399.34;108142;1284;21986;-60
2023/08/24 10:46:01;;;;;;;4.70;2.70;;;;;;;38.44;30.06;100395.11;108115;1287;21988;-73
2023/08/24 10:48:31;;;;;;;4.40;2.90;;;;;;;38.47;30.28;100393.98;108090;1287;22003;-74
2023/08/24 10:51:28;;;;;;;7.80;3.10;;;;;;;38.47;30.34;100393.39;108004;1284;22041;-73
2023/08/24 10:54:00;;;;;;;6.20;2.80;;;;;;;38.55;30.46;100396.95;108108;1283;21986;-59
2023/08/24 10:56:39;;;;;;;4.00;2.60;;;;;;;38.63;30.34;100400.45;108101;1281;21988;-58
2023/08/24 10:59:15;;;;;;;4.90;3.00;;;;;;;38.68;30.29;100402.38;108090;1284;21989;-75
2023/08/24 11:01:42;;;;;;;8.40;3.70;;;;;;;38.68;30.07;100411.80;108150;1286;21994;-59
2023/08/24 11:04:08;;;;;;;5.60;3.80;;;;;;;38.51;30.06;100407.88;108147;1277;21989;-71
2023/08/24 11:06:33;;;;;;;8.50;3.80;;;;;;;38.42;30.18;100402.70;108113;1283;21985;-60
2023/08/24 11:09:17;;;;;;;6.70;3.50;;;;;;;38.45;30.36;100399.96;108123;1288;22095;-60
2023/08/24 11:11:53;;;;;;;8.90;3.70;;;;;;;38.51;30.27;100399.33;108101;1283;21990;-71
2023/08/24 11:14:22;;;;;;;6.70;3.20;;;;;;;38.70;30.07;100401.75;107883;1288;21989;-71